Time;durP1;ratioP1;P1;durP2;ratioP2;P2;SDS_P1;SDS_P2;PMS_P1;PMS_P2;Temp;Humidity;BMP_temperature;BMP_pressure;BME280_temperature;BME280_humidity;BME280_pressure;Samples;Min_cycle;Max_cycle;Signal;HPM_P1;HPM_P2
2023/06/27 00:00:21;;;;;;;11.95;8.50;;;512.20;2380.80;;;;;;5048229;28;20029;-63
2023/06/27 00:02:47;;;;;;;12.82;9.32;;;512.30;2380.80;;;;;;5049186;28;20036;-62
2023/06/27 00:05:13;;;;;;;13.20;8.50;;;512.30;2380.80;;;;;;5048411;28;20040;-62
2023/06/27 00:07:41;;;;;;;11.15;8.73;;;512.20;2380.80;;;;;;5048480;28;20021;-65
2023/06/27 00:10:09;;;;;;;9.50;8.30;;;512.20;2380.80;;;;;;5049037;28;20073;-67
2023/06/27 00:12:35;;;;;;;10.50;8.52;;;512.10;2380.80;;;;;;5048849;28;20029;-67
2023/06/27 00:15:05;;;;;;;9.60;8.60;;;512.00;2380.80;;;;;;5048329;28;20021;-64
2023/06/27 00:17:32;;;;;;;10.98;9.07;;;487.30;2380.80;;;;;;5048486;28;20021;-68
2023/06/27 00:20:02;;;;;;;10.07;8.98;;;487.30;2380.80;;;;;;5051119;28;20056;-65
2023/06/27 00:22:29;;;;;;;12.73;9.38;;;487.30;2380.80;;;;;;5052737;28;20433;-64
2023/06/27 00:24:55;;;;;;;12.05;8.73;;;487.20;2380.80;;;;;;5052590;28;20041;-64
2023/06/27 00:27:21;;;;;;;10.55;8.93;;;487.10;2380.80;;;;;;5052463;28;20079;-64
2023/06/27 00:29:47;;;;;;;10.63;8.85;;;487.20;2380.80;;;;;;5048082;28;20053;-65
2023/06/27 00:32:13;;;;;;;11.13;8.95;;;;;;;;;;5043941;28;20056;-64
2023/06/27 00:34:38;;;;;;;10.63;8.27;;;512.10;2380.80;;;;;;5052385;28;20024;-66
2023/06/27 00:37:04;;;;;;;9.60;8.00;;;487.20;2380.80;;;;;;5052540;28;20412;-70
2023/06/27 00:39:32;;;;;;;11.43;8.40;;;487.10;2380.80;;;;;;5052229;28;20024;-64
2023/06/27 00:41:58;;;;;;;10.60;8.48;;;487.10;2380.80;;;;;;5052376;28;20029;-64
2023/06/27 00:44:23;;;;;;;11.13;9.05;;;487.20;2380.80;;;;;;5052200;28;20029;-64
2023/06/27 00:46:51;;;;;;;13.93;9.35;;;487.10;2380.80;;;;;;5051913;28;20051;-63
2023/06/27 00:49:19;;;;;;;10.30;8.30;;;487.20;2380.80;;;;;;5052483;28;20009;-64
2023/06/27 00:51:48;;;;;;;10.50;8.70;;;487.20;2380.80;;;;;;5052526;28;20029;-64
2023/06/27 00:54:16;;;;;;;10.43;8.15;;;487.10;2380.80;;;;;;5052188;28;20086;-64
2023/06/27 00:56:42;;;;;;;9.70;7.72;;;487.00;2380.80;;;;;;5051789;28;20040;-64
2023/06/27 00:59:09;;;;;;;12.10;8.20;;;487.00;2380.80;;;;;;5051742;28;20371;-64
2023/06/27 01:01:34;;;;;;;11.73;8.80;;;487.00;2380.80;;;;;;5052008;28;20029;-68
2023/06/27 01:04:00;;;;;;;11.35;9.38;;;487.00;2380.80;;;;;;5052056;28;20032;-64
2023/06/27 01:06:41;;;;;;;11.52;8.70;;;487.00;2380.80;;;;;;5051920;28;20029;-64
2023/06/27 01:09:12;;;;;;;11.02;9.02;;;487.10;2380.80;;;;;;5020043;28;20021;-72
2023/06/27 01:11:47;;;;;;;12.77;8.88;;;487.10;2380.80;;;;;;5047058;28;20025;-64
2023/06/27 01:14:16;;;;;;;13.57;9.52;;;487.20;2380.80;;;;;;5051968;28;20494;-72
2023/06/27 01:16:46;;;;;;;11.18;8.38;;;487.30;2380.80;;;;;;5051536;28;20464;-71
2023/06/27 01:19:13;;;;;;;12.35;8.70;;;487.20;2380.80;;;;;;5051639;28;20060;-68
2023/06/27 01:21:41;;;;;;;9.43;7.75;;;487.20;2380.80;;;;;;5051851;28;20017;-64
2023/06/27 01:24:07;;;;;;;14.15;9.32;;;487.20;2380.80;;;;;;5051537;28;20036;-71
2023/06/27 01:26:34;;;;;;;9.23;8.02;;;487.20;2380.80;;;;;;5051353;28;20059;-62
2023/06/27 01:29:00;;;;;;;10.05;8.68;;;487.10;2380.80;;;;;;5051672;28;20025;-65
2023/06/27 01:31:40;;;;;;;11.05;8.85;;;487.20;2380.80;;;;;;5049995;28;20029;-72
2023/06/27 01:34:20;;;;;;;10.15;7.55;;;487.20;2380.80;;;;;;5051458;28;20048;-63
2023/06/27 01:36:48;;;;;;;11.13;7.70;;;487.10;2380.80;;;;;;5051504;28;20037;-63
2023/06/27 01:39:21;;;;;;;8.68;7.75;;;487.10;2380.80;;;;;;5051346;28;20522;-63
2023/06/27 01:41:51;;;;;;;9.20;8.00;;;487.10;2380.80;;;;;;5041647;28;20108;-64
2023/06/27 01:44:19;;;;;;;16.67;9.80;;;487.00;2380.80;;;;;;5049000;28;20018;-64
2023/06/27 01:46:47;;;;;;;12.10;9.65;;;487.00;2380.80;;;;;;5051139;28;20036;-65
2023/06/27 01:49:13;;;;;;;10.18;8.85;;;486.90;2380.80;;;;;;5050803;28;20079;-69
2023/06/27 01:51:41;;;;;;;12.55;9.20;;;486.90;2380.80;;;;;;5051128;28;20021;-64
2023/06/27 01:54:07;;;;;;;11.52;8.50;;;486.90;2380.80;;;;;;5051050;28;20116;-64
2023/06/27 01:56:33;;;;;;;9.70;7.60;;;486.80;2380.80;;;;;;5051224;28;20017;-72
2023/06/27 01:58:59;;;;;;;13.48;9.32;;;486.80;2380.80;;;;;;5050494;28;20033;-64
2023/06/27 02:01:24;;;;;;;10.18;9.07;;;486.80;2380.80;;;;;;5051097;28;20021;-64
2023/06/27 02:03:50;;;;;;;12.30;9.50;;;486.80;2380.80;;;;;;5050756;28;20029;-74
2023/06/27 02:06:16;;;;;;;10.85;8.68;;;486.80;2380.80;;;;;;5050997;28;20463;-67
2023/06/27 02:08:43;;;;;;;9.75;8.48;;;486.90;2380.80;;;;;;5050168;28;20032;-63
2023/06/27 02:11:08;;;;;;;12.35;8.52;;;486.80;2380.80;;;;;;5049718;28;20532;-63
2023/06/27 02:13:37;;;;;;;10.48;7.57;;;486.80;2380.80;;;;;;5050474;28;20108;-63
2023/06/27 02:16:03;;;;;;;10.93;8.73;;;486.70;2380.80;;;;;;5039639;28;20060;-63
2023/06/27 02:18:28;;;;;;;12.45;9.00;;;486.80;2380.80;;;;;;5048615;28;20483;-65
2023/06/27 02:20:54;;;;;;;13.25;8.77;;;486.80;2380.80;;;;;;5050607;28;20036;-64
2023/06/27 02:23:20;;;;;;;13.13;8.98;;;486.90;2380.80;;;;;;5049782;28;20017;-72
2023/06/27 02:25:45;;;;;;;13.35;8.50;;;486.80;2380.80;;;;;;5050505;28;20259;-63
2023/06/27 02:28:11;;;;;;;11.15;8.95;;;486.80;2380.80;;;;;;5050302;28;20103;-63
2023/06/27 02:30:37;;;;;;;11.00;8.43;;;486.60;2380.80;;;;;;5050640;28;20033;-72
2023/06/27 02:33:03;;;;;;;11.45;9.50;;;486.50;2380.80;;;;;;5050143;28;20017;-63
2023/06/27 02:35:29;;;;;;;12.02;8.45;;;;;;;;;;5050505;28;20024;-64
2023/06/27 02:37:55;;;;;;;11.27;8.23;;;;;;;;;;5049882;28;20128;-68
2023/06/27 02:40:21;;;;;;;12.73;8.70;;;;;;;;;;5050517;28;20067;-72
2023/06/27 02:42:47;;;;;;;11.60;8.88;;;;;;;;;;5045149;28;20014;-63
2023/06/27 02:45:14;;;;;;;12.13;8.88;;;;;;;;;;5041675;28;20037;-63
2023/06/27 02:47:40;;;;;;;9.52;7.82;;;;;;;;;;5049820;28;20468;-64
2023/06/27 02:50:07;;;;;;;11.00;8.35;;;;;;;;;;5038226;28;20055;-63
2023/06/27 02:52:33;;;;;;;11.18;8.68;;;;;;;;;;5048170;28;20463;-63
2023/06/27 02:54:59;;;;;;;11.68;8.93;;;;;;;;;;5049612;28;20203;-63
2023/06/27 02:57:25;;;;;;;13.40;10.27;;;;;;;;;;5044632;28;20101;-63
2023/06/27 02:59:51;;;;;;;9.82;8.82;;;;;;;;;;5041821;28;20036;-64
2023/06/27 03:02:18;;;;;;;11.63;8.80;;;;;;;;;;5044751;28;20444;-75
2023/06/27 03:04:46;;;;;;;13.63;8.70;;;;;;;;;;5041628;28;20455;-75
2023/06/27 03:07:12;;;;;;;10.20;8.05;;;;;;;;;;5049375;28;20021;-70
2023/06/27 03:09:38;;;;;;;9.63;8.07;;;;;;;;;;5049802;28;20098;-67
2023/06/27 03:12:04;;;;;;;12.77;8.85;;;;;;;;;;5049848;28;20560;-76
2023/06/27 03:14:30;;;;;;;10.98;8.30;;;;;;;;;;5049571;28;20025;-67
2023/06/27 03:16:56;;;;;;;9.57;8.25;;;;;;;;;;5034460;28;20498;-64
2023/06/27 03:19:22;;;;;;;12.18;8.93;;;487.20;2380.80;;;;;;5041824;28;20036;-74
2023/06/27 03:21:48;;;;;;;11.07;8.73;;;487.00;2380.80;;;;;;5049230;28;20033;-64
2023/06/27 03:24:14;;;;;;;10.90;8.80;;;487.00;2380.80;;;;;;5049334;28;20439;-71
2023/06/27 03:26:39;;;;;;;10.07;8.95;;;486.80;2380.80;;;;;;5049500;28;20531;-71
2023/06/27 03:29:05;;;;;;;11.18;7.80;;;486.80;2380.80;;;;;;5047966;28;20035;-63
2023/06/27 03:31:31;;;;;;;9.88;8.00;;;486.90;2380.80;;;;;;5049043;28;20025;-63
2023/06/27 03:33:57;;;;;;;9.00;8.10;;;486.80;2380.80;;;;;;5049233;28;20017;-63
2023/06/27 03:36:28;;;;;;;9.90;8.15;;;;;;;;;;5048947;28;20033;-62
2023/06/27 03:38:55;;;;;;;12.95;8.10;;;;;;;;;;5049077;28;20099;-69
2023/06/27 03:41:21;;;;;;;13.10;8.23;;;;;;;;;;5049312;28;20025;-63
2023/06/27 03:43:48;;;;;;;10.55;8.82;;;;;;;;;;5049266;28;20025;-65
2023/06/27 03:46:14;;;;;;;10.35;9.20;;;;;;;;;;5049279;28;20032;-63
2023/06/27 03:48:41;;;;;;;10.43;8.07;;;;;;;;;;5048381;28;20104;-74
2023/06/27 03:51:07;;;;;;;11.60;8.23;;;;;;;;;;5049147;28;20430;-73
2023/06/27 03:53:33;;;;;;;9.20;7.95;;;;;;;;;;5048037;28;20021;-65
2023/06/27 03:56:01;;;;;;;10.50;7.97;;;;;;;;;;5048666;28;20037;-64
2023/06/27 03:58:27;;;;;;;12.50;9.30;;;;;;;;;;5049081;28;20473;-74
2023/06/27 04:00:53;;;;;;;10.15;7.88;;;;;;;;;;5048643;28;20025;-69
2023/06/27 04:03:20;;;;;;;14.27;8.75;;;;;;;;;;5035179;28;20021;-68
2023/06/27 04:05:46;;;;;;;13.82;8.70;;;;;;;;;;5048938;28;20050;-63
2023/06/27 04:08:12;;;;;;;12.48;7.97;;;;;;;;;;5048466;28;20498;-73
2023/06/27 04:10:42;;;;;;;10.10;7.95;;;;;;;;;;5048941;28;20029;-65
2023/06/27 04:13:08;;;;;;;12.90;8.85;;;;;;;;;;5048825;28;20036;-71
2023/06/27 04:15:39;;;;;;;9.15;8.07;;;;;;;;;;5048934;28;20040;-71
2023/06/27 04:18:05;;;;;;;9.95;8.25;;;537.70;2406.40;;;;;;5048884;28;20032;-65
2023/06/27 04:20:31;;;;;;;11.23;9.43;;;537.60;2406.40;;;;;;5048618;28;20415;-71
2023/06/27 04:22:56;;;;;;;13.18;8.30;;;537.60;2406.40;;;;;;5048342;28;20141;-71
2023/06/27 04:25:22;;;;;;;10.13;8.13;;;537.70;2406.40;;;;;;5048413;28;20037;-70
2023/06/27 04:27:48;;;;;;;10.23;8.27;;;538.10;2406.40;;;;;;5048820;28;20067;-69
2023/06/27 04:30:14;;;;;;;9.40;7.72;;;538.00;2406.40;;;;;;5048868;28;20021;-68
2023/06/27 04:32:40;;;;;;;10.52;8.02;;;;;;;;;;5048486;28;20487;-64
2023/06/27 04:35:06;;;;;;;11.05;8.80;;;614.60;2432.00;;;;;;5048585;28;20026;-66
2023/06/27 04:37:32;;;;;;;10.13;8.07;;;691.40;2329.60;;;;;;5048037;28;20126;-76
2023/06/27 04:39:58;;;;;;;12.05;8.13;;;742.90;2048.00;;;;;;5048565;28;20489;-64
2023/06/27 04:42:23;;;;;;;12.20;8.48;;;794.00;1868.80;;;;;;5047623;28;20029;-64
2023/06/27 04:44:49;;;;;;;9.07;8.20;;;819.80;1766.40;;;;;;5035547;28;20039;-64
2023/06/27 04:47:15;;;;;;;10.43;8.60;;;845.60;1689.60;;;;;;5029797;28;20067;-66
2023/06/27 04:49:40;;;;;;;9.90;8.15;;;871.10;1561.60;;;;;;5048283;28;20025;-72
2023/06/27 04:52:06;;;;;;;10.50;8.75;;;896.40;1536.00;;;;;;5041072;28;20156;-77
2023/06/27 04:54:32;;;;;;;8.95;8.13;;;;;;;;;;5034944;28;20076;-79
2023/06/27 04:56:58;;;;;;;9.25;7.72;;;921.90;1484.80;;;;;;5036097;28;20075;-73
2023/06/27 04:59:24;;;;;;;15.68;9.93;;;922.00;1484.80;;;;;;5046109;28;20021;-74
2023/06/27 05:01:50;;;;;;;9.02;8.10;;;;;;;;;;5048160;28;20021;-67
2023/06/27 05:04:15;;;;;;;9.77;8.98;;;921.80;1484.80;;;;;;5048044;28;20021;-75
2023/06/27 05:06:41;;;;;;;10.15;9.10;;;972.80;1408.00;;;;;;5037509;28;20445;-70
2023/06/27 05:09:07;;;;;;;9.45;8.57;;;973.40;1382.40;;;;;;5051780;28;20033;-65
2023/06/27 05:11:32;;;;;;;10.18;8.77;;;973.70;1356.80;;;;;;5051531;28;20021;-75
2023/06/27 05:13:58;;;;;;;10.70;8.93;;;999.10;1305.60;;;;;;5051703;28;20037;-70
2023/06/27 05:16:24;;;;;;;9.57;8.65;;;1024.50;1305.60;;;;;;5050950;28;20074;-73
2023/06/27 05:18:50;;;;;;;10.23;9.30;;;1049.90;1254.40;;;;;;5051479;28;20033;-75
2023/06/27 05:21:15;;;;;;;11.80;10.23;;;1050.30;1254.40;;;;;;5051468;28;20107;-73
2023/06/27 05:23:43;;;;;;;11.25;10.25;;;1075.60;1203.20;;;;;;5051446;28;20107;-73
2023/06/27 05:26:08;;;;;;;16.15;11.02;;;1075.40;1203.20;;;;;;5051336;28;20040;-68
2023/06/27 05:28:35;;;;;;;11.70;10.52;;;1101.10;1203.20;;;;;;5051861;28;20494;-71
2023/06/27 05:31:01;;;;;;;10.75;9.75;;;1101.50;1177.60;;;;;;5051376;28;20104;-67
2023/06/27 05:33:26;;;;;;;12.38;9.52;;;1126.90;1152.00;;;;;;5051572;28;20440;-67
2023/06/27 05:35:52;;;;;;;10.95;10.02;;;1127.00;1152.00;;;;;;5051225;28;20112;-72
2023/06/27 05:38:18;;;;;;;11.63;10.35;;;1152.00;1126.40;;;;;;5050230;28;20995;-68
2023/06/27 05:40:43;;;;;;;11.50;10.55;;;1152.10;1126.40;;;;;;5051036;28;20070;-74
2023/06/27 05:43:09;;;;;;;11.80;10.60;;;1152.70;1100.80;;;;;;5051294;28;20020;-68
2023/06/27 05:45:35;;;;;;;11.80;10.77;;;1177.70;1075.20;;;;;;5051416;28;20044;-75
2023/06/27 05:48:00;;;;;;;12.30;11.15;;;1177.70;1075.20;;;;;;5050702;28;20044;-67
2023/06/27 05:50:27;;;;;;;13.10;12.00;;;1178.30;1049.60;;;;;;5051111;28;20108;-73
2023/06/27 05:52:52;;;;;;;13.23;12.23;;;1178.50;1049.60;;;;;;5050913;28;20066;-69
2023/06/27 05:55:18;;;;;;;13.68;12.35;;;1177.70;1075.20;;;;;;5047211;28;20029;-67
2023/06/27 05:57:44;;;;;;;13.52;12.27;;;1152.40;1126.40;;;;;;5041443;28;20384;-73
2023/06/27 06:00:11;;;;;;;13.93;12.68;;;1152.60;1100.80;;;;;;5050345;28;20024;-74
2023/06/27 06:02:38;;;;;;;13.73;12.68;;;1178.30;1075.20;;;;;;5051441;28;20017;-72
2023/06/27 06:05:05;;;;;;;13.23;12.02;;;1203.40;1049.60;;;;;;5050946;28;20040;-67
2023/06/27 06:07:31;;;;;;;15.45;13.90;;;1203.90;1049.60;;;;;;5050137;28;20108;-74
2023/06/27 06:09:57;;;;;;;14.32;12.68;;;1228.80;1049.60;;;;;;5049710;28;20032;-67
2023/06/27 06:12:23;;;;;;;13.15;12.23;;;1229.00;1049.60;;;;;;5038617;28;20020;-67
2023/06/27 06:14:48;;;;;;;13.30;12.20;;;1229.00;1049.60;;;;;;5037565;28;20060;-68
2023/06/27 06:17:14;;;;;;;13.82;12.77;;;1229.20;1049.60;;;;;;5048618;28;20053;-64
2023/06/27 06:19:40;;;;;;;14.30;13.00;;;1254.40;1049.60;;;;;;5050140;28;20082;-67
2023/06/27 06:22:06;;;;;;;14.95;13.75;;;1254.80;1024.00;;;;;;5050127;28;20051;-73
2023/06/27 06:24:32;;;;;;;14.00;13.00;;;1254.80;1024.00;;;;;;5048969;28;20467;-71
2023/06/27 06:26:58;;;;;;;15.57;14.27;;;1255.30;1024.00;;;;;;5050000;28;20156;-72
2023/06/27 06:29:23;;;;;;;13.75;12.65;;;1280.00;1024.00;;;;;;5049238;28;20441;-69
2023/06/27 06:31:49;;;;;;;13.82;12.52;;;1280.70;998.40;;;;;;5028448;28;20037;-71
2023/06/27 06:34:15;;;;;;;13.98;12.98;;;1280.40;972.80;;;;;;5021191;28;20087;-64
2023/06/27 06:36:41;;;;;;;13.15;12.10;;;1280.90;947.20;;;;;;5028944;28;20144;-70
2023/06/27 06:39:06;;;;;;;10.30;9.50;;;1254.50;1049.60;;;;;;5036610;28;20046;-69
2023/06/27 06:41:32;;;;;;;12.02;11.23;;;1178.10;1049.60;;;;;;5031089;28;20040;-71
2023/06/27 06:43:58;;;;;;;12.68;11.57;;;1126.90;1126.40;;;;;;5022397;28;20030;-72
2023/06/27 06:46:23;;;;;;;10.18;9.30;;;1101.70;1126.40;;;;;;5037837;28;20056;-72
2023/06/27 06:48:50;;;;;;;11.50;10.70;;;1152.10;1100.80;;;;;;5032052;28;20014;-72
2023/06/27 06:51:17;;;;;;;9.27;8.48;;;1152.70;1049.60;;;;;;5025387;28;20044;-69
2023/06/27 06:53:42;;;;;;;8.43;7.70;;;1101.60;1126.40;;;;;;5022984;28;20436;-70
2023/06/27 06:56:08;;;;;;;12.13;11.05;;;1049.80;1203.20;;;;;;5040552;28;20029;-72
2023/06/27 06:58:34;;;;;;;10.15;9.15;;;1075.20;1177.60;;;;;;5030069;28;20026;-73
2023/06/27 07:01:00;;;;;;;11.77;10.85;;;1126.80;1126.40;;;;;;5029962;28;20405;-72
2023/06/27 07:03:25;;;;;;;12.70;11.80;;;1152.90;1075.20;;;;;;5021351;28;20026;-71
2023/06/27 07:05:51;;;;;;;11.40;10.50;;;1229.00;1024.00;;;;;;5034024;28;20046;-72
2023/06/27 07:08:16;;;;;;;9.88;9.18;;;1229.40;1024.00;;;;;;5022762;28;20037;-71
2023/06/27 07:10:42;;;;;;;9.43;8.63;;;1228.90;1024.00;;;;;;5023424;28;20029;-72
2023/06/27 07:13:08;;;;;;;9.85;8.95;;;1152.40;1100.80;;;;;;5019590;28;20063;-70
2023/06/27 07:15:33;;;;;;;9.10;8.20;;;1126.70;1126.40;;;;;;5039713;28;20017;-73
2023/06/27 07:17:59;;;;;;;9.68;8.38;;;1101.00;1152.00;;;;;;5027438;28;20026;-68
2023/06/27 07:20:25;;;;;;;9.32;8.43;;;1075.20;1177.60;;;;;;5031155;28;20100;-72
2023/06/27 07:22:51;;;;;;;11.30;10.25;;;1049.60;1254.40;;;;;;5021807;28;20064;-70
2023/06/27 07:25:18;;;;;;;11.85;10.95;;;1075.30;1203.20;;;;;;5023392;28;20042;-72
2023/06/27 07:27:44;;;;;;;9.50;8.60;;;1101.10;1177.60;;;;;;5024597;28;20448;-69
2023/06/27 07:30:11;;;;;;;11.20;10.38;;;1126.90;1126.40;;;;;;5023851;28;20139;-73
2023/06/27 07:32:36;;;;;;;10.50;9.60;;;1126.80;1152.00;;;;;;5027814;28;20022;-73
2023/06/27 07:35:04;;;;;;;12.20;11.30;;;1178.50;1024.00;;;;;;5018860;28;20656;-69
2023/06/27 07:37:30;;;;;;;10.25;9.45;;;1229.40;1024.00;;;;;;5021682;28;20045;-71
2023/06/27 07:39:57;;;;;;;12.98;11.98;;;1254.40;1049.60;;;;;;5020539;28;20478;-72
2023/06/27 07:42:24;;;;;;;50.65;17.63;;;1280.00;972.80;;;;;;5025252;28;20025;-67
2023/06/27 07:44:49;;;;;;;14.48;13.32;;;1280.40;972.80;;;;;;5018219;28;20133;-71
2023/06/27 07:47:15;;;;;;;12.70;11.70;;;1280.70;921.60;;;;;;5017293;28;20117;-67
2023/06/27 07:49:40;;;;;;;13.05;12.00;;;1305.70;921.60;;;;;;5031443;28;20022;-72
2023/06/27 07:52:07;;;;;;;12.73;11.88;;;1305.60;921.60;;;;;;5030412;28;20438;-70
2023/06/27 07:54:33;;;;;;;13.23;12.30;;;1306.20;896.00;;;;;;5030845;28;20387;-74
2023/06/27 07:56:59;;;;;;;14.27;13.25;;;1305.90;896.00;;;;;;5025078;28;20033;-69
2023/06/27 07:59:25;;;;;;;13.35;12.50;;;1331.20;896.00;;;;;;5021456;28;20655;-68
2023/06/27 08:01:51;;;;;;;13.13;12.25;;;1331.20;921.60;;;;;;5022903;28;20033;-73
2023/06/27 08:04:16;;;;;;;13.68;12.75;;;1305.90;896.00;;;;;;5026029;28;20472;-72
2023/06/27 08:06:43;;;;;;;14.23;13.32;;;1305.90;896.00;;;;;;5017598;28;20485;-73
2023/06/27 08:09:08;;;;;;;14.43;13.52;;;1305.70;921.60;;;;;;5026398;28;20163;-70
2023/06/27 08:11:34;;;;;;;15.38;14.27;;;1280.40;921.60;;;;;;5027423;28;20465;-69
2023/06/27 08:14:00;;;;;;;14.57;13.48;;;1229.50;947.20;;;;;;5030135;28;20079;-69
2023/06/27 08:16:26;;;;;;;14.55;13.35;;;1178.30;947.20;;;;;;5029182;28;20038;-72
2023/06/27 08:18:52;;;;;;;10.02;9.02;;;1127.30;1024.00;;;;;;5022503;28;20022;-71
2023/06/27 08:21:17;;;;;;;9.55;8.73;;;1075.50;1049.60;;;;;;5027459;28;20259;-72
2023/06/27 08:23:44;;;;;;;9.00;8.20;;;998.80;1126.40;;;;;;5019808;28;20516;-73
2023/06/27 08:26:17;;;;;;;9.77;6.82;;;973.50;1152.00;;;;;;5022841;28;20471;-71
2023/06/27 08:28:43;;;;;;;7.45;6.75;;;972.80;1203.20;;;;;;5021503;28;20096;-69
2023/06/27 08:31:11;;;;;;;9.57;6.90;;;947.50;1177.60;;;;;;5032597;28;20048;-65
2023/06/27 08:33:37;;;;;;;8.23;7.43;;;947.40;1203.20;;;;;;5022071;28;20510;-70
2023/06/27 08:36:03;;;;;;;16.13;8.50;;;922.40;1228.80;;;;;;5027932;28;20140;-69
2023/06/27 08:38:28;;;;;;;8.32;7.53;;;922.50;1228.80;;;;;;5024512;28;20112;-70
2023/06/27 08:40:55;;;;;;;9.05;8.02;;;947.20;1228.80;;;;;;5027574;28;20078;-67
2023/06/27 08:43:22;;;;;;;9.02;8.18;;;947.20;1228.80;;;;;;5032639;28;20026;-70
2023/06/27 08:45:57;;;;;;;8.68;7.88;;;922.40;1203.20;;;;;;5028541;28;20036;-69
2023/06/27 08:48:24;;;;;;;8.07;7.38;;;922.10;1254.40;;;;;;5028755;28;20087;-66
2023/06/27 08:50:53;;;;;;;10.80;7.53;;;922.00;1254.40;;;;;;5031897;28;20029;-73
2023/06/27 08:53:21;;;;;;;10.77;7.22;;;922.00;1305.60;;;;;;5032759;28;20033;-67
2023/06/27 08:56:01;;;;;;;9.85;8.25;;;921.70;1280.00;;;;;;5032832;28;20103;-73
2023/06/27 08:58:34;;;;;;;8.32;7.40;;;871.30;1305.60;;;;;;5028180;28;20116;-68
2023/06/27 09:01:00;;;;;;;7.43;6.68;;;871.30;1280.00;;;;;;5028242;28;20387;-63
2023/06/27 09:03:26;;;;;;;8.82;7.95;;;871.30;1305.60;;;;;;5032607;28;20033;-72
2023/06/27 09:05:53;;;;;;;10.90;7.93;;;871.10;1356.80;;;;;;5021196;28;20025;-72
2023/06/27 09:08:19;;;;;;;8.43;7.63;;;871.10;1331.20;;;;;;5021277;28;20484;-69
2023/06/27 09:10:45;;;;;;;8.77;7.68;;;871.30;1331.20;;;;;;5029629;28;20116;-70
2023/06/27 09:13:11;;;;;;;11.45;7.57;;;896.00;1305.60;;;;;;5033024;28;20108;-74
2023/06/27 09:15:37;;;;;;;8.63;7.75;;;871.30;1331.20;;;;;;5035102;28;20033;-74
2023/06/27 09:18:03;;;;;;;8.60;7.80;;;871.30;1331.20;;;;;;5024259;28;20423;-75
2023/06/27 09:20:29;;;;;;;8.88;7.88;;;870.90;1331.20;;;;;;5033142;28;20033;-71
2023/06/27 09:22:57;;;;;;;8.93;8.02;;;870.40;1331.20;;;;;;5026916;28;20026;-73
2023/06/27 09:25:24;;;;;;;8.30;7.13;;;870.40;1331.20;;;;;;5044979;28;20487;-73
2023/06/27 09:27:50;;;;;;;7.85;7.15;;;870.50;1356.80;;;;;;5033049;28;20037;-74
2023/06/27 09:30:17;;;;;;;14.25;7.53;;;845.70;1382.40;;;;;;5045023;28;20086;-72
2023/06/27 09:32:59;;;;;;;9.30;7.90;;;845.70;1382.40;;;;;;5020680;28;20022;-71
2023/06/27 09:35:27;;;;;;;9.15;8.35;;;845.60;1382.40;;;;;;5031515;28;20121;-66
2023/06/27 09:38:02;;;;;;;8.77;7.88;;;845.70;1382.40;;;;;;5024655;28;20053;-74
2023/06/27 09:40:28;;;;;;;8.30;6.82;;;870.40;1408.00;;;;;;5027191;28;20073;-70
2023/06/27 09:42:58;;;;;;;8.18;7.45;;;870.40;1356.80;;;;;;5028931;28;20327;-74
2023/06/27 09:45:29;;;;;;;8.02;7.25;;;870.40;1408.00;;;;;;5035114;28;20028;-74
2023/06/27 09:47:55;;;;;;;7.38;6.68;;;870.40;1382.40;;;;;;5028361;28;20065;-71
2023/06/27 09:50:28;;;;;;;9.15;8.25;;;845.70;1382.40;;;;;;5029907;28;20065;-73
2023/06/27 09:52:59;;;;;;;8.75;7.95;;;845.20;1382.40;;;;;;5031665;28;20060;-73
2023/06/27 09:55:25;;;;;;;8.95;7.63;;;845.40;1433.60;;;;;;5027304;28;20041;-74
2023/06/27 09:57:51;;;;;;;9.15;8.27;;;845.30;1433.60;;;;;;5029258;28;20025;-72
2023/06/27 10:00:21;;;;;;;10.52;7.55;;;845.20;1408.00;;;;;;5036623;28;20522;-70
2023/06/27 10:02:50;;;;;;;7.78;6.50;;;845.20;1408.00;;;;;;5030579;28;20102;-74
2023/06/27 10:05:18;;;;;;;9.32;8.05;;;845.30;1433.60;;;;;;5025548;28;21304;-75
2023/06/27 10:07:44;;;;;;;8.50;7.60;;;845.60;1433.60;;;;;;5026902;28;20021;-71
2023/06/27 10:10:11;;;;;;;8.30;7.45;;;845.70;1433.60;;;;;;5024579;28;20502;-73
2023/06/27 10:12:37;;;;;;;8.15;6.95;;;845.70;1408.00;;;;;;5027569;28;20079;-71
2023/06/27 10:15:05;;;;;;;9.02;7.97;;;845.50;1408.00;;;;;;5029130;28;20071;-70
2023/06/27 10:17:31;;;;;;;8.55;7.80;;;845.40;1408.00;;;;;;5032830;28;20498;-68
2023/06/27 10:19:57;;;;;;;8.82;8.00;;;845.50;1408.00;;;;;;5027694;28;20436;-72
2023/06/27 10:22:29;;;;;;;8.45;7.65;;;845.00;1408.00;;;;;;5026993;28;20029;-71
2023/06/27 10:24:59;;;;;;;8.82;7.93;;;845.20;1433.60;;;;;;5028757;28;20103;-70
2023/06/27 10:27:25;;;;;;;10.73;7.93;;;845.20;1408.00;;;;;;5022554;28;20472;-73
2023/06/27 10:29:51;;;;;;;9.52;8.15;;;845.20;1408.00;;;;;;5039501;28;20040;-70
2023/06/27 10:32:18;;;;;;;10.15;8.23;;;845.20;1382.40;;;;;;5024923;28;20022;-71
2023/06/27 10:34:45;;;;;;;9.32;7.65;;;845.10;1459.20;;;;;;5045554;28;20025;-74
2023/06/27 10:37:24;;;;;;;8.95;8.05;;;845.20;1433.60;;;;;;5026859;28;20164;-72
2023/06/27 10:40:06;;;;;;;9.63;8.55;;;845.30;1433.60;;;;;;5020537;28;20030;-71
2023/06/27 10:42:32;;;;;;;8.85;7.88;;;845.40;1433.60;;;;;;5023807;28;20116;-74
2023/06/27 10:45:03;;;;;;;9.80;8.80;;;845.70;1433.60;;;;;;5028568;28;20204;-73
2023/06/27 10:47:42;;;;;;;8.65;7.85;;;870.50;1382.40;;;;;;5022959;28;20530;-69
2023/06/27 10:50:12;;;;;;;9.18;8.25;;;845.60;1433.60;;;;;;5019777;28;20022;-65
2023/06/27 10:52:39;;;;;;;9.15;8.10;;;845.70;1408.00;;;;;;5031782;28;20045;-66
2023/06/27 10:55:14;;;;;;;10.80;7.55;;;845.60;1459.20;;;;;;5015480;28;20076;-73
2023/06/27 10:57:51;;;;;;;10.70;7.70;;;845.20;1459.20;;;;;;5020954;28;20014;-66
2023/06/27 11:00:31;;;;;;;8.02;7.22;;;820.10;1408.00;;;;;;5029695;28;20053;-65
2023/06/27 11:02:58;;;;;;;8.98;8.18;;;844.90;1459.20;;;;;;5031377;28;20038;-74
2023/06/27 11:05:47;;;;;;;7.47;6.75;;;820.10;1408.00;;;;;;5026147;28;20021;-74
2023/06/27 11:08:18;;;;;;;15.23;9.27;;;819.80;1433.60;;;;;;5026058;28;20085;-74
2023/06/27 11:11:08;;;;;;;8.98;8.07;;;819.30;1459.20;;;;;;5030103;28;20068;-66
2023/06/27 11:13:45;;;;;;;7.93;7.10;;;794.50;1484.80;;;;;;5024357;28;20040;-71
2023/06/27 11:16:12;;;;;;;8.98;8.18;;;819.40;1484.80;;;;;;5025411;28;20021;-72
2023/06/27 11:18:38;;;;;;;8.07;7.03;;;819.30;1459.20;;;;;;5031606;28;20036;-74
2023/06/27 11:21:04;;;;;;;8.40;7.28;;;819.50;1536.00;;;;;;5030354;28;20108;-73
2023/06/27 11:23:30;;;;;;;8.65;7.85;;;819.50;1484.80;;;;;;5025761;28;20026;-72
2023/06/27 11:25:56;;;;;;;8.07;7.38;;;819.30;1484.80;;;;;;5024819;28;20036;-73
2023/06/27 11:28:23;;;;;;;9.98;7.90;;;819.60;1484.80;;;;;;5028727;28;20017;-72
2023/06/27 11:30:50;;;;;;;7.88;7.05;;;819.80;1484.80;;;;;;5035658;28;20040;-67
2023/06/27 11:33:19;;;;;;;8.25;7.28;;;820.10;1459.20;;;;;;5019050;28;20658;-69
2023/06/27 11:35:45;;;;;;;7.45;6.40;;;819.60;1433.60;;;;;;5021076;28;20561;-74
2023/06/27 11:38:11;;;;;;;6.95;6.18;;;819.50;1408.00;;;;;;5026026;28;20127;-73
2023/06/27 11:40:37;;;;;;;7.63;6.63;;;819.20;1459.20;;;;;;5030175;28;20112;-73
2023/06/27 11:43:05;;;;;;;8.07;7.28;;;794.50;1510.40;;;;;;5031406;28;20151;-74
2023/06/27 11:45:32;;;;;;;7.47;6.57;;;794.20;1510.40;;;;;;5042094;28;20057;-63
2023/06/27 11:47:59;;;;;;;9.13;7.60;;;794.00;1484.80;;;;;;5027747;28;20028;-65
2023/06/27 11:50:25;;;;;;;7.72;6.88;;;794.30;1510.40;;;;;;5019742;28;20029;-66
2023/06/27 11:52:51;;;;;;;9.65;6.47;;;794.40;1484.80;;;;;;5022127;28;20071;-66
2023/06/27 11:55:18;;;;;;;7.35;6.43;;;819.30;1484.80;;;;;;5019105;28;20549;-65
2023/06/27 11:57:51;;;;;;;6.93;6.22;;;819.60;1484.80;;;;;;5032590;28;20117;-64
2023/06/27 12:00:22;;;;;;;8.63;6.70;;;819.60;1459.20;;;;;;5034347;28;20426;-64
2023/06/27 12:02:50;;;;;;;7.10;6.40;;;819.60;1484.80;;;;;;5029775;28;20056;-65
2023/06/27 12:05:17;;;;;;;9.25;6.22;;;819.50;1484.80;;;;;;5025586;28;20029;-69
2023/06/27 12:08:07;;;;;;;7.40;6.55;;;819.60;1433.60;;;;;;5021457;28;20030;-65
2023/06/27 12:10:48;;;;;;;6.68;5.82;;;819.30;1459.20;;;;;;5025844;28;20472;-66
2023/06/27 12:13:13;;;;;;;7.90;6.10;;;794.40;1459.20;;;;;;5031691;28;20033;-65
2023/06/27 12:15:46;;;;;;;8.05;6.07;;;794.40;1484.80;;;;;;5035717;28;20033;-67
2023/06/27 12:18:23;;;;;;;7.93;6.50;;;819.30;1484.80;;;;;;5025681;28;20051;-67
2023/06/27 12:20:51;;;;;;;8.00;6.80;;;819.30;1510.40;;;;;;5023277;28;20579;-65
2023/06/27 12:23:17;;;;;;;8.23;6.63;;;794.50;1459.20;;;;;;5035680;28;20032;-66